createdAt,value
2022-11-18T00:03:27.794Z,8.29
2022-11-18T00:09:29.691Z,8.16
2022-11-18T00:15:31.951Z,8.09
2022-11-18T00:21:33.900Z,8.08
2022-11-18T00:27:35.779Z,8.10
2022-11-18T00:33:38.264Z,8.16
2022-11-18T00:39:40.137Z,8.23
2022-11-18T00:45:43.848Z,8.22
2022-11-18T00:51:45.819Z,8.27
2022-11-18T00:57:47.703Z,8.20
2022-11-18T01:03:49.620Z,8.43
2022-11-18T01:09:51.518Z,8.24
2022-11-18T01:15:58.427Z,8.20
2022-11-18T01:22:03.119Z,8.23
2022-11-18T01:28:05.773Z,8.31
2022-11-18T01:34:07.655Z,8.22
2022-11-18T01:40:11.101Z,8.28
2022-11-18T01:46:12.983Z,8.24
2022-11-18T01:52:15.417Z,8.25
2022-11-18T01:58:52.218Z,8.29
2022-11-18T02:04:56.518Z,8.53
2022-11-18T02:10:58.409Z,8.56
2022-11-18T02:17:33.936Z,8.41
2022-11-18T02:23:57.046Z,8.26
2022-11-18T02:30:10.379Z,8.35
2022-11-18T02:36:28.569Z,8.32
2022-11-18T02:42:33.523Z,8.32
2022-11-18T02:48:41.226Z,8.36
2022-11-18T02:54:47.285Z,8.36
2022-11-18T03:01:01.483Z,8.29
2022-11-18T03:07:25.981Z,8.30
2022-11-18T03:13:39.708Z,8.32
2022-11-18T03:20:15.260Z,8.30
2022-11-18T03:26:29.674Z,8.57
2022-11-18T03:32:38.285Z,8.10
2022-11-18T03:38:50.671Z,8.00
2022-11-18T03:45:09.677Z,7.89
2022-11-18T03:51:18.910Z,7.91
2022-11-18T03:57:33.030Z,7.85
2022-11-18T04:03:35.208Z,7.75
2022-11-18T04:10:08.261Z,7.70
2022-11-18T04:16:11.513Z,7.65
2022-11-18T04:22:13.857Z,7.62
2022-11-18T04:28:15.776Z,7.71
2022-11-18T04:34:17.735Z,7.91
2022-11-18T04:40:19.699Z,7.72
2022-11-18T04:46:21.586Z,7.65
2022-11-18T04:52:23.509Z,7.56
2022-11-18T04:58:25.412Z,7.55
2022-11-18T05:04:31.537Z,7.70
2022-11-18T05:10:33.450Z,7.87
2022-11-18T05:16:35.343Z,7.70
2022-11-18T05:22:37.290Z,7.60
2022-11-18T05:28:39.382Z,7.58
2022-11-18T05:34:42.473Z,7.85
2022-11-18T05:40:44.344Z,7.53
2022-11-18T05:46:46.232Z,7.75
2022-11-18T05:52:48.107Z,7.45
2022-11-18T05:58:50.173Z,7.43
2022-11-18T06:05:02.761Z,7.45
2022-11-18T06:11:07.742Z,7.53
2022-11-18T06:17:18.862Z,7.40
2022-11-18T06:23:21.330Z,7.48
2022-11-18T06:29:27.665Z,7.33
2022-11-18T06:35:30.123Z,7.29
2022-11-18T06:41:33.102Z,7.19
2022-11-18T06:47:35.003Z,7.50
2022-11-18T06:53:37.110Z,7.40
2022-11-18T06:59:39.006Z,7.20
2022-11-18T07:05:40.942Z,7.24
2022-11-18T07:11:42.883Z,7.01
2022-11-18T07:17:44.792Z,7.16
2022-11-18T07:23:47.542Z,7.18
2022-11-18T07:29:49.415Z,7.05
2022-11-18T07:35:51.351Z,7.20
2022-11-18T07:41:53.250Z,7.11
2022-11-18T07:47:55.150Z,7.17
2022-11-18T07:53:57.061Z,7.20
2022-11-18T07:59:58.993Z,7.21
2022-11-18T08:06:02.354Z,7.23
2022-11-18T08:12:04.652Z,7.22
2022-11-18T08:18:10.951Z,7.07
2022-11-18T08:24:15.369Z,7.12
2022-11-18T08:30:17.906Z,7.33
2022-11-18T08:36:23.789Z,7.23
2022-11-18T08:42:29.903Z,6.93
2022-11-18T08:48:35.006Z,7.02
2022-11-18T08:54:37.047Z,6.99
2022-11-18T09:00:38.943Z,6.84
2022-11-18T09:06:40.926Z,6.90
2022-11-18T09:12:42.847Z,6.82
2022-11-18T09:18:44.729Z,7.10
2022-11-18T09:24:46.657Z,7.14
2022-11-18T09:30:48.525Z,7.05
2022-11-18T09:36:50.704Z,7.10
2022-11-18T09:43:24.291Z,7.17
2022-11-18T09:49:36.242Z,7.34
2022-11-18T09:55:40.955Z,7.07
2022-11-18T10:01:43.735Z,6.99
2022-11-18T10:08:15.771Z,6.57
2022-11-18T10:14:42.232Z,6.49
2022-11-18T10:21:24.077Z,6.59
2022-11-18T10:27:37.532Z,6.41
2022-11-18T10:33:39.806Z,6.40
2022-11-18T10:39:57.003Z,6.17
2022-11-18T10:46:28.592Z,6.05
2022-11-18T10:52:30.880Z,6.16
2022-11-18T10:58:37.844Z,6.14
2022-11-18T11:04:41.372Z,6.32
2022-11-18T11:10:58.594Z,6.27
2022-11-18T11:17:43.223Z,6.24
2022-11-18T11:23:46.418Z,6.35
2022-11-18T11:30:07.811Z,6.26
2022-11-18T11:36:20.480Z,6.36
2022-11-18T11:43:10.451Z,6.34
2022-11-18T11:49:24.943Z,6.24
2022-11-18T11:55:42.243Z,6.13
2022-11-18T12:01:56.575Z,6.18
2022-11-18T12:08:25.808Z,6.27
2022-11-18T12:14:42.659Z,6.23
2022-11-18T12:20:52.163Z,6.26
2022-11-18T12:26:54.424Z,5.99
2022-11-18T12:32:57.767Z,6.03
2022-11-18T12:39:25.603Z,5.96
2022-11-18T12:45:58.391Z,6.04
2022-11-18T12:52:02.338Z,6.01
2022-11-18T12:58:20.057Z,5.91
2022-11-18T13:04:21.935Z,5.85
2022-11-18T13:10:29.184Z,5.85
2022-11-18T13:16:49.991Z,5.89
2022-11-18T13:23:17.172Z,5.55
2022-11-18T13:29:38.827Z,5.33
2022-11-18T13:35:41.424Z,5.42
2022-11-18T13:41:43.338Z,5.50
2022-11-18T13:47:55.193Z,5.53
2022-11-18T13:53:57.327Z,5.76
2022-11-18T14:00:07.057Z,5.50
2022-11-18T14:06:09.786Z,5.43
2022-11-18T14:12:14.579Z,5.46
2022-11-18T14:18:35.629Z,5.50
2022-11-18T14:24:37.678Z,5.54
2022-11-18T14:31:16.501Z,5.37
2022-11-18T14:37:18.754Z,5.16
2022-11-18T14:43:20.718Z,5.02
2022-11-18T14:49:25.342Z,4.71
2022-11-18T14:55:27.280Z,4.76
2022-11-18T15:01:31.051Z,5.04
2022-11-18T15:07:33.199Z,4.69
2022-11-18T15:13:35.279Z,4.36
2022-11-18T15:19:37.399Z,4.24
2022-11-18T15:25:39.689Z,4.22
2022-11-18T15:31:41.571Z,4.31
2022-11-18T15:37:43.427Z,4.11
2022-11-18T15:43:46.267Z,4.18
2022-11-18T15:49:48.245Z,4.39
2022-11-18T15:55:50.133Z,4.02
2022-11-18T16:01:55.959Z,4.14
2022-11-18T16:07:57.844Z,4.03
2022-11-18T16:14:05.338Z,3.91
2022-11-18T16:20:07.740Z,3.37
2022-11-18T16:26:09.621Z,3.23
2022-11-18T16:32:14.243Z,3.26
2022-11-18T16:38:16.206Z,3.18
2022-11-18T16:44:19.116Z,3.06
2022-11-18T16:50:21.035Z,2.82
2022-11-18T16:56:29.248Z,2.79
2022-11-18T17:02:31.591Z,2.69
2022-11-18T17:08:36.056Z,2.56
2022-11-18T17:14:39.922Z,2.45
2022-11-18T17:20:41.823Z,2.38
2022-11-18T17:26:43.826Z,2.54
2022-11-18T17:32:45.714Z,2.35
2022-11-18T17:38:51.671Z,2.49
2022-11-18T17:44:53.603Z,2.59
2022-11-18T17:51:03.727Z,2.41
2022-11-18T17:57:05.625Z,2.56
2022-11-18T18:03:07.510Z,2.45
2022-11-18T18:09:09.481Z,2.39
2022-11-18T18:15:11.363Z,2.12
2022-11-18T18:21:13.325Z,2.03
2022-11-18T18:27:15.239Z,2.16
2022-11-18T18:33:17.128Z,1.85
2022-11-18T18:39:18.995Z,1.93
2022-11-18T18:45:39.584Z,1.98
2022-11-18T18:51:48.886Z,1.74
2022-11-18T18:57:51.304Z,1.86
2022-11-18T19:04:00.012Z,1.86
2022-11-18T19:10:02.073Z,1.88
2022-11-18T19:16:07.624Z,1.93
2022-11-18T19:22:12.372Z,1.79
2022-11-18T19:28:14.271Z,1.81
2022-11-18T19:34:16.572Z,1.68
2022-11-18T19:40:18.806Z,1.81
2022-11-18T19:46:21.852Z,1.70
2022-11-18T19:52:23.875Z,1.73
2022-11-18T19:58:26.889Z,1.60
2022-11-18T20:04:28.937Z,1.56
2022-11-18T20:10:31.517Z,1.44
2022-11-18T20:16:33.714Z,1.75
2022-11-18T20:22:35.660Z,1.70
2022-11-18T20:28:41.009Z,1.65
2022-11-18T20:34:42.925Z,1.65
2022-11-18T20:40:44.823Z,1.73
2022-11-18T20:46:46.692Z,1.71
2022-11-18T20:52:48.574Z,1.67
2022-11-18T20:58:51.012Z,1.64
2022-11-18T21:04:52.901Z,1.81
2022-11-18T21:10:54.784Z,1.67
2022-11-18T21:17:00.818Z,1.67
2022-11-18T21:23:02.725Z,1.52
2022-11-18T21:29:07.984Z,1.63
2022-11-18T21:35:09.861Z,1.55
2022-11-18T21:41:12.629Z,1.67
2022-11-18T21:47:14.543Z,1.68
2022-11-18T21:53:16.483Z,1.47
2022-11-18T21:59:18.823Z,1.42
2022-11-18T22:05:21.054Z,1.35
2022-11-18T22:11:23.447Z,1.39
2022-11-18T22:17:25.376Z,1.40
2022-11-18T22:23:29.204Z,1.11
2022-11-18T22:29:31.120Z,1.21
2022-11-18T22:35:32.983Z,1.00
2022-11-18T22:41:53.243Z,1.06
2022-11-18T22:47:55.114Z,1.05
2022-11-18T22:54:22.997Z,0.97
2022-11-18T23:00:18.996Z,0.92
2022-11-18T23:06:21.008Z,0.89
2022-11-18T23:12:44.931Z,0.81
2022-11-18T23:18:50.103Z,0.89
2022-11-18T23:24:51.984Z,0.70
2022-11-18T23:31:02.641Z,0.90
2022-11-18T23:37:04.516Z,0.78
2022-11-18T23:43:06.399Z,0.82
2022-11-18T23:49:09.606Z,1.02
2022-11-18T23:55:11.580Z,0.81
